createdAt,value
2018-09-21T00:00:15.843Z,20.25
2018-09-21T00:01:25.914Z,20.2
2018-09-21T00:02:35.727Z,20.19
2018-09-21T00:03:45.545Z,20.16
2018-09-21T00:04:55.596Z,20.19
2018-09-21T00:06:06.119Z,20.1
2018-09-21T00:07:16.204Z,20.11
2018-09-21T00:08:26.006Z,20.1
2018-09-21T00:09:36.087Z,20.02
2018-09-21T00:10:46.151Z,19.95
2018-09-21T00:11:56.212Z,20.04
2018-09-21T00:13:06.030Z,20.01
2018-09-21T00:14:15.859Z,20.01
2018-09-21T00:15:25.939Z,20.04
2018-09-21T00:16:35.739Z,19.95
2018-09-21T00:17:45.300Z,19.92
2018-09-21T00:18:55.105Z,20
2018-09-21T00:20:05.687Z,19.95
2018-09-21T00:21:15.505Z,19.97
2018-09-21T00:22:25.579Z,19.86
2018-09-21T00:23:36.456Z,19.93
2018-09-21T00:24:46.005Z,19.85
2018-09-21T00:25:55.829Z,19.82
2018-09-21T00:27:08.102Z,19.97
2018-09-21T00:28:18.217Z,19.89
2018-09-21T00:29:28.293Z,19.9
2018-09-21T00:30:38.364Z,19.89
2018-09-21T00:31:48.179Z,19.92
2018-09-21T00:32:58.276Z,19.83
2018-09-21T00:34:08.085Z,19.83
2018-09-21T00:35:18.205Z,19.85
2018-09-21T00:36:28.010Z,19.83
2018-09-21T00:37:38.113Z,19.82
2018-09-21T00:38:48.181Z,19.86
2018-09-21T00:39:58.241Z,19.85
2018-09-21T00:41:08.919Z,19.75
2018-09-21T00:42:18.737Z,19.8
2018-09-21T00:43:28.797Z,19.8
2018-09-21T00:44:38.617Z,19.75
2018-09-21T00:45:48.689Z,19.78
2018-09-21T00:46:58.769Z,19.74
2018-09-21T00:48:10.621Z,19.74
2018-09-21T00:49:20.486Z,19.72
2018-09-21T00:50:30.294Z,19.74
2018-09-21T00:51:39.849Z,19.72
2018-09-21T00:52:49.922Z,19.75
2018-09-21T00:54:00.010Z,19.68
2018-09-21T00:55:09.820Z,19.65
2018-09-21T00:56:19.888Z,19.68
2018-09-21T00:57:29.697Z,19.65
2018-09-21T00:58:39.884Z,19.67
2018-09-21T00:59:49.967Z,19.61
2018-09-21T01:01:00.038Z,19.67
2018-09-21T01:02:09.858Z,19.61
2018-09-21T01:03:19.672Z,19.75
2018-09-21T01:04:29.751Z,19.67
2018-09-21T01:05:39.820Z,19.68
2018-09-21T01:06:49.877Z,19.63
2018-09-21T01:07:59.999Z,19.79
2018-09-21T01:09:10.117Z,19.63
2018-09-21T01:10:19.980Z,19.63
2018-09-21T01:11:30.060Z,19.61
2018-09-21T01:12:40.155Z,19.64
2018-09-21T01:13:50.237Z,19.65
2018-09-21T01:15:00.331Z,19.71
2018-09-21T01:16:11.443Z,19.64
2018-09-21T01:17:21.515Z,19.68
2018-09-21T01:18:31.311Z,19.7
2018-09-21T01:19:41.126Z,19.72
2018-09-21T01:20:50.934Z,19.71
2018-09-21T01:22:00.760Z,19.74
2018-09-21T01:23:10.946Z,19.68
2018-09-21T01:24:20.771Z,19.63
2018-09-21T01:25:30.835Z,19.63
2018-09-21T01:26:40.909Z,19.57
2018-09-21T01:27:50.793Z,19.7
2018-09-21T01:29:00.352Z,19.53
2018-09-21T01:30:10.452Z,19.53
2018-09-21T01:31:20.269Z,19.47
2018-09-21T01:32:30.355Z,19.52
2018-09-21T01:33:40.496Z,19.49
2018-09-21T01:34:50.577Z,19.45
2018-09-21T01:36:00.657Z,19.57
2018-09-21T01:37:10.754Z,19.49
2018-09-21T01:38:20.808Z,19.56
2018-09-21T01:39:30.628Z,19.52
2018-09-21T01:40:40.697Z,19.56
2018-09-21T01:41:50.814Z,19.49
2018-09-21T01:43:00.633Z,19.56
2018-09-21T01:44:10.707Z,19.56
2018-09-21T01:45:20.791Z,19.49
2018-09-21T01:46:30.592Z,19.45
2018-09-21T01:47:40.667Z,19.43
2018-09-21T01:48:50.753Z,19.42
2018-09-21T01:50:00.840Z,19.45
2018-09-21T01:51:10.946Z,19.34
2018-09-21T01:52:20.750Z,19.42
2018-09-21T01:53:30.825Z,19.4
2018-09-21T01:54:40.904Z,19.4
2018-09-21T01:55:50.775Z,19.32
2018-09-21T01:57:00.896Z,19.37
2018-09-21T01:58:10.705Z,19.32
2018-09-21T01:59:20.777Z,19.38
2018-09-21T02:00:30.841Z,19.32
2018-09-21T02:01:40.665Z,19.32
2018-09-21T02:02:50.716Z,19.32
2018-09-21T02:04:00.515Z,19.35
2018-09-21T02:05:10.615Z,19.31
2018-09-21T02:06:20.693Z,19.27
2018-09-21T02:07:30.776Z,19.23
2018-09-21T02:08:40.853Z,19.27
2018-09-21T02:09:50.929Z,19.23
2018-09-21T02:11:01.126Z,19.27
2018-09-21T02:12:11.202Z,19.24
2018-09-21T02:13:21.279Z,19.25
2018-09-21T02:14:31.408Z,19.28
2018-09-21T02:15:41.224Z,19.23
2018-09-21T02:16:51.318Z,19.2
2018-09-21T02:18:02.228Z,19.25
2018-09-21T02:19:12.314Z,19.23
2018-09-21T02:20:22.470Z,19.24
2018-09-21T02:21:32.298Z,19.17
2018-09-21T02:22:42.378Z,19.16
2018-09-21T02:23:52.172Z,19.27
2018-09-21T02:25:02.253Z,19.23
2018-09-21T02:26:12.357Z,19.19
2018-09-21T02:27:22.422Z,19.2
2018-09-21T02:28:32.508Z,19.17
2018-09-21T02:29:42.315Z,19.17
2018-09-21T02:30:52.133Z,19.07
2018-09-21T02:32:02.194Z,19.07
2018-09-21T02:33:11.747Z,19.07
2018-09-21T02:34:21.836Z,19.12
2018-09-21T02:35:31.899Z,19.12
2018-09-21T02:36:41.785Z,18.99
2018-09-21T02:37:51.855Z,19
2018-09-21T02:39:01.678Z,18.94
2018-09-21T02:40:11.764Z,19
2018-09-21T02:41:22.098Z,19.02
2018-09-21T02:42:32.416Z,18.96
2018-09-21T02:43:42.374Z,19.02
2018-09-21T02:44:52.463Z,19
2018-09-21T02:46:02.538Z,18.93
2018-09-21T02:47:12.632Z,18.97
2018-09-21T02:48:22.444Z,18.93
2018-09-21T02:49:32.256Z,18.93
2018-09-21T02:50:42.357Z,18.9
2018-09-21T02:51:52.428Z,18.86
2018-09-21T02:53:02.510Z,18.9
2018-09-21T02:54:12.592Z,18.9
2018-09-21T02:55:23.360Z,18.84
2018-09-21T02:56:33.425Z,18.91
2018-09-21T02:57:43.507Z,18.76
2018-09-21T02:58:53.344Z,18.82
2018-09-21T03:00:03.412Z,18.79
2018-09-21T03:01:13.497Z,18.74
2018-09-21T03:02:23.623Z,18.72
2018-09-21T03:35:29.817Z,16.39
2018-09-21T03:36:39.895Z,16.34
2018-09-21T03:37:49.728Z,16.25
2018-09-21T03:38:59.848Z,16.25
2018-09-21T03:40:10.661Z,16.37
2018-09-21T03:41:20.784Z,16.34
2018-09-21T03:42:30.875Z,16.26
2018-09-21T03:43:40.685Z,16.36
2018-09-21T03:44:50.830Z,16.51
2018-09-21T03:46:01.542Z,16.59
2018-09-21T03:47:12.145Z,16.63
2018-09-21T03:48:22.208Z,16.72
2018-09-21T03:49:32.036Z,16.8
2018-09-21T03:50:42.111Z,17
2018-09-21T03:51:51.960Z,17.09
2018-09-21T03:53:02.081Z,17.07
2018-09-21T03:54:12.171Z,17.27
2018-09-21T03:55:22.307Z,17.35
2018-09-21T03:56:32.390Z,17.45
2018-09-21T03:57:42.469Z,17.46
2018-09-21T03:58:52.532Z,17.58
2018-09-21T04:00:02.345Z,17.5
2018-09-21T04:01:12.429Z,17.69
2018-09-21T04:02:22.709Z,17.76
2018-09-21T04:03:32.789Z,17.69
2018-09-21T04:04:42.918Z,17.83
2018-09-21T04:05:53.001Z,17.86
2018-09-21T04:07:03.084Z,17.88
2018-09-21T04:08:13.170Z,17.96
2018-09-21T04:09:23.237Z,18.02
2018-09-21T04:10:33.383Z,18.03
2018-09-21T04:11:43.467Z,18.1
2018-09-21T04:12:53.544Z,18.11
2018-09-21T04:14:03.620Z,18.08
2018-09-21T04:15:13.690Z,18.2
2018-09-21T04:16:23.523Z,18.17
2018-09-21T04:17:33.604Z,18.17
2018-09-21T04:18:43.706Z,18.17
2018-09-21T04:19:53.769Z,18.16
2018-09-21T04:21:03.600Z,18.16
2018-09-21T04:22:13.413Z,18.16
2018-09-21T04:23:23.260Z,18.2
2018-09-21T04:24:33.346Z,18.21
2018-09-21T04:25:43.161Z,18.23
2018-09-21T04:26:52.965Z,18.21
2018-09-21T04:28:02.779Z,18.29
2018-09-21T04:29:12.843Z,18.24
2018-09-21T04:30:22.948Z,18.21
2018-09-21T04:31:33.000Z,18.21
2018-09-21T04:32:42.821Z,18.26
2018-09-21T04:33:52.895Z,18.31
2018-09-21T04:35:05.280Z,18.24
2018-09-21T04:36:15.672Z,18.31
2018-09-21T04:37:25.778Z,18.31
2018-09-21T04:38:35.862Z,18.27
2018-09-21T04:39:45.949Z,18.26
2018-09-21T04:40:56.027Z,18.29
2018-09-21T04:42:08.601Z,18.36
2018-09-21T04:43:18.677Z,18.36
2018-09-21T04:44:28.569Z,18.45
2018-09-21T04:45:38.256Z,18.36
2018-09-21T04:46:48.403Z,18.41
2018-09-21T04:47:58.469Z,18.45
2018-09-21T04:49:08.558Z,18.44
2018-09-21T04:50:18.665Z,18.42
2018-09-21T04:51:28.738Z,18.44
2018-09-21T04:52:38.886Z,18.47
2018-09-21T04:53:48.961Z,18.45
2018-09-21T04:54:59.047Z,18.47
2018-09-21T04:56:09.854Z,18.57
2018-09-21T04:57:19.982Z,18.49
2018-09-21T04:58:29.795Z,18.53
2018-09-21T04:59:39.866Z,18.59
2018-09-21T05:00:49.678Z,18.53
2018-09-21T05:01:59.258Z,18.53
2018-09-21T05:03:09.415Z,18.53
2018-09-21T05:04:19.495Z,18.53
2018-09-21T05:05:29.303Z,18.6
2018-09-21T05:06:39.123Z,18.61
2018-09-21T05:07:49.205Z,18.6
2018-09-21T05:08:59.271Z,18.61
2018-09-21T05:10:09.356Z,18.68
2018-09-21T05:11:19.436Z,18.72
2018-09-21T05:12:29.524Z,18.79
2018-09-21T05:13:39.802Z,18.76
2018-09-21T05:14:50.127Z,18.89
2018-09-21T05:16:00.304Z,18.87
2018-09-21T05:17:10.379Z,18.93
2018-09-21T05:18:20.478Z,19.02
2018-09-21T05:19:30.550Z,19.1
2018-09-21T05:20:40.637Z,19.09
2018-09-21T05:21:50.465Z,19.12
2018-09-21T05:23:01.146Z,19.09
2018-09-21T05:24:10.681Z,19.17
2018-09-21T05:25:20.487Z,19.23
2018-09-21T05:26:30.327Z,19.28
2018-09-21T05:27:40.246Z,19.31
2018-09-21T05:28:50.502Z,19.38
2018-09-21T05:30:03.986Z,19.32
2018-09-21T05:31:14.056Z,19.45
2018-09-21T05:32:24.189Z,19.52
2018-09-21T05:33:34.269Z,19.6
2018-09-21T05:34:44.932Z,19.65
2018-09-21T05:35:55.614Z,19.65
2018-09-21T05:37:08.847Z,19.74
2018-09-21T05:38:18.914Z,19.78
2018-09-21T05:39:28.990Z,19.78
2018-09-21T05:40:39.081Z,19.8
2018-09-21T05:41:49.167Z,19.87
2018-09-21T05:42:58.984Z,19.87
2018-09-21T05:44:09.217Z,19.97
2018-09-21T05:45:19.036Z,20.05
2018-09-21T05:46:28.873Z,20.04
2018-09-21T05:47:38.967Z,20.07
2018-09-21T05:48:49.045Z,20.19
2018-09-21T05:49:59.150Z,20.19
2018-09-21T05:51:09.225Z,20.26
2018-09-21T05:52:19.301Z,20.27
2018-09-21T05:53:29.389Z,20.37
2018-09-21T05:54:39.496Z,20.35
2018-09-21T05:55:49.311Z,20.49
2018-09-21T05:56:59.379Z,20.51
2018-09-21T05:58:09.194Z,20.64
2018-09-21T05:59:19.309Z,20.74
2018-09-21T06:00:29.411Z,20.67
2018-09-21T06:01:39.606Z,20.83
2018-09-21T06:02:49.762Z,20.79
2018-09-21T06:03:59.750Z,20.94
2018-09-21T06:05:09.835Z,20.96
2018-09-21T06:06:19.923Z,20.96
2018-09-21T06:07:29.781Z,20.97
2018-09-21T06:08:39.860Z,21.12
2018-09-21T06:09:49.930Z,21.11
2018-09-21T06:10:59.750Z,21.19
2018-09-21T06:12:09.826Z,21.22
2018-09-21T06:13:19.902Z,21.19
2018-09-21T06:14:29.725Z,21.28
2018-09-21T06:15:39.551Z,21.31
2018-09-21T06:16:49.371Z,21.4
2018-09-21T06:17:59.458Z,21.4
2018-09-21T06:19:09.585Z,21.41
2018-09-21T06:20:19.728Z,21.46
2018-09-21T06:21:29.552Z,21.59
2018-09-21T06:22:50.317Z,21.66
2018-09-21T06:24:00.521Z,21.61
2018-09-21T06:25:10.640Z,21.62
2018-09-21T06:26:20.478Z,21.64
2018-09-21T06:27:30.550Z,21.64
2018-09-21T06:28:40.362Z,21.73
2018-09-21T06:29:50.475Z,21.7
2018-09-21T06:31:00.558Z,21.76
2018-09-21T06:32:10.422Z,21.76
2018-09-21T06:33:20.516Z,21.82
2018-09-21T06:34:30.576Z,21.82
2018-09-21T06:35:40.719Z,21.83
2018-09-21T06:36:50.534Z,21.89
2018-09-21T06:38:01.302Z,21.85
2018-09-21T06:39:11.131Z,21.92
2018-09-21T06:40:21.245Z,21.93
2018-09-21T06:41:31.351Z,22.02
2018-09-21T06:42:41.219Z,22.11
2018-09-21T06:43:51.060Z,22.2
2018-09-21T06:45:01.131Z,22.23
2018-09-21T06:46:11.217Z,22.24
2018-09-21T06:47:21.382Z,22.24
2018-09-21T06:48:31.551Z,22.29
2018-09-21T06:49:41.646Z,22.39
2018-09-21T06:50:51.882Z,22.42
2018-09-21T06:52:01.961Z,22.54
2018-09-21T06:53:12.136Z,22.54
2018-09-21T06:54:21.987Z,22.63
2018-09-21T06:55:32.066Z,22.69
2018-09-21T06:56:42.149Z,22.71
2018-09-21T06:57:52.241Z,22.85
2018-09-21T06:59:02.320Z,22.91
2018-09-21T07:00:12.246Z,22.85
2018-09-21T07:01:22.170Z,23.04
2018-09-21T07:02:32.558Z,22.92
2018-09-21T07:03:42.665Z,22.97
2018-09-21T07:04:52.812Z,23
2018-09-21T07:06:02.931Z,23.1
2018-09-21T07:07:13.018Z,23.06
2018-09-21T07:08:23.126Z,23.12
2018-09-21T07:09:33.214Z,23.21
2018-09-21T07:10:43.337Z,23.18
2018-09-21T07:11:53.431Z,23.22
2018-09-21T07:13:04.766Z,23.25
2018-09-21T07:14:14.571Z,23.34
2018-09-21T07:15:24.645Z,23.4
2018-09-21T07:16:34.732Z,23.48
2018-09-21T07:17:44.831Z,23.48
2018-09-21T07:18:54.924Z,23.62
2018-09-21T07:20:05.185Z,23.63
2018-09-21T07:21:15.282Z,23.66
2018-09-21T07:22:25.359Z,23.64
2018-09-21T07:23:35.449Z,23.75
2018-09-21T07:24:45.536Z,23.85
2018-09-21T07:25:55.612Z,23.85
2018-09-21T07:27:05.684Z,23.92
2018-09-21T07:28:15.785Z,23.94
2018-09-21T07:29:25.868Z,24.11
2018-09-21T07:30:35.940Z,24.11
2018-09-21T07:31:46.025Z,24.14
2018-09-21T07:32:55.837Z,24.19
2018-09-21T07:34:07.330Z,24.33
2018-09-21T07:35:17.132Z,24.36
2018-09-21T07:36:26.679Z,24.42
2018-09-21T07:37:36.837Z,24.49
2018-09-21T07:38:46.616Z,24.63
2018-09-21T07:39:56.698Z,24.66
2018-09-21T07:41:07.331Z,24.69
2018-09-21T07:42:17.430Z,24.69
2018-09-21T07:43:27.547Z,24.78
2018-09-21T07:44:37.646Z,24.78
2018-09-21T07:45:48.023Z,24.89
2018-09-21T07:46:58.112Z,25
2018-09-21T07:48:08.217Z,25.05
2018-09-21T07:49:18.052Z,25.14
2018-09-21T07:50:27.949Z,25.12
2018-09-21T07:51:38.272Z,25.29
2018-09-21T07:52:48.359Z,25.29
2018-09-21T07:53:58.444Z,25.34
2018-09-21T07:55:08.540Z,25.42
2018-09-21T07:56:18.643Z,25.48
2018-09-21T07:57:28.780Z,25.49
2018-09-21T07:58:38.618Z,25.63
2018-09-21T07:59:48.439Z,25.63
2018-09-21T08:00:58.265Z,25.59
2018-09-21T08:02:08.356Z,25.75
2018-09-21T08:03:18.189Z,25.84
2018-09-21T08:04:27.738Z,25.81
2018-09-21T08:05:37.568Z,25.89
2018-09-21T08:06:47.662Z,26.07
2018-09-21T08:07:57.757Z,26.12
2018-09-21T08:09:08.657Z,26.19
2018-09-21T08:10:18.490Z,26.24
2018-09-21T08:11:28.300Z,26.3
2018-09-21T08:12:38.388Z,26.3
2018-09-21T08:13:48.608Z,26.45
2018-09-21T08:14:58.694Z,26.44
2018-09-21T08:16:08.807Z,26.44
2018-09-21T08:17:18.926Z,26.53
2018-09-21T08:18:29.007Z,26.57
2018-09-21T08:19:39.297Z,26.6
2018-09-21T08:20:49.400Z,26.63
2018-09-21T08:21:59.503Z,26.69
2018-09-21T08:23:09.616Z,26.78
2018-09-21T08:24:19.458Z,26.82
2018-09-21T08:25:29.549Z,26.96
2018-09-21T08:26:40.020Z,27
2018-09-21T08:27:50.418Z,26.9
2018-09-21T08:29:00.688Z,27.05
2018-09-21T08:30:10.490Z,27.11
2018-09-21T08:31:20.377Z,27.12
2018-09-21T08:32:30.354Z,27.24
2018-09-21T08:33:40.448Z,27.26
2018-09-21T08:34:50.009Z,27.36
2018-09-21T08:36:00.121Z,27.41
2018-09-21T08:37:10.450Z,27.43
2018-09-21T08:38:20.622Z,27.57
2018-09-21T08:39:30.707Z,27.64
2018-09-21T08:40:40.827Z,27.71
2018-09-21T08:41:50.961Z,27.72
2018-09-21T08:43:00.904Z,27.75
2018-09-21T08:44:10.899Z,27.84
2018-09-21T08:45:20.986Z,27.99
2018-09-21T08:46:31.185Z,28.03
2018-09-21T08:47:41.284Z,28.14
2018-09-21T08:48:50.858Z,28.16
2018-09-21T08:50:00.959Z,28.16
2018-09-21T08:51:10.899Z,28.24
2018-09-21T08:52:21.000Z,28.28
2018-09-21T08:53:31.091Z,28.35
2018-09-21T08:54:41.185Z,28.48
2018-09-21T08:55:51.349Z,28.49
2018-09-21T08:57:01.441Z,28.46
2018-09-21T08:58:11.547Z,28.54
2018-09-21T08:59:21.641Z,28.6
2018-09-21T09:00:31.733Z,28.67
2018-09-21T09:01:41.545Z,28.67
2018-09-21T09:02:51.426Z,28.82
2018-09-21T09:04:01.367Z,28.82
2018-09-21T09:05:11.450Z,28.86
2018-09-21T09:06:21.540Z,28.82
2018-09-21T09:07:31.428Z,28.95
2018-09-21T09:08:41.520Z,28.95
2018-09-21T09:09:51.346Z,29.03
2018-09-21T09:11:01.464Z,29.03
2018-09-21T09:12:11.289Z,29.06
2018-09-21T09:13:21.378Z,29.14
2018-09-21T09:14:31.477Z,29.24
2018-09-21T09:15:41.556Z,29.28
2018-09-21T09:16:51.645Z,29.29
2018-09-21T09:18:01.725Z,29.39
2018-09-21T09:19:11.885Z,29.43
2018-09-21T09:20:21.498Z,29.42
2018-09-21T09:21:31.587Z,29.55
2018-09-21T09:22:41.676Z,29.55
2018-09-21T09:23:51.759Z,29.63
2018-09-21T09:25:03.874Z,29.61
2018-09-21T09:26:14.126Z,29.72
2018-09-21T09:27:23.947Z,29.63
2018-09-21T09:28:34.020Z,29.69
2018-09-21T09:29:43.941Z,29.73
2018-09-21T09:30:54.105Z,29.72
2018-09-21T09:32:04.199Z,29.85
2018-09-21T09:33:14.044Z,29.92
2018-09-21T09:34:24.137Z,29.98
2018-09-21T09:35:34.241Z,29.98
2018-09-21T09:36:44.195Z,30.09
2018-09-21T09:37:54.094Z,30.07
2018-09-21T09:39:03.926Z,30.13
2018-09-21T09:40:13.763Z,30.18
2018-09-21T09:41:23.859Z,30.21
2018-09-21T09:42:34.054Z,30.22
2018-09-21T09:43:43.608Z,30.28
2018-09-21T09:44:53.708Z,30.31
2018-09-21T09:46:03.783Z,30.31
2018-09-21T09:47:13.606Z,30.31
2018-09-21T09:48:23.908Z,30.35
2018-09-21T09:49:34.343Z,30.44
2018-09-21T09:50:44.447Z,30.48
2018-09-21T09:51:54.537Z,30.48
2018-09-21T09:53:04.644Z,30.49
2018-09-21T09:54:14.733Z,30.48
2018-09-21T09:55:24.820Z,30.52
2018-09-21T09:56:34.912Z,30.48
2018-09-21T09:57:45.000Z,30.52
2018-09-21T09:58:54.824Z,30.54
2018-09-21T10:00:06.777Z,30.66
2018-09-21T10:01:16.881Z,30.75
2018-09-21T10:02:26.971Z,30.79
2018-09-21T10:03:37.463Z,30.78
2018-09-21T10:04:47.519Z,30.82
2018-09-21T10:05:57.645Z,30.81
2018-09-21T10:07:06.940Z,30.88
2018-09-21T10:08:17.039Z,30.89
2018-09-21T10:09:27.141Z,30.96
2018-09-21T10:10:36.696Z,30.93
2018-09-21T10:11:46.595Z,31.03
2018-09-21T10:12:56.708Z,31.04
2018-09-21T10:14:06.803Z,31.01
2018-09-21T10:15:16.910Z,31.06
2018-09-21T10:16:27.303Z,31.04
2018-09-21T10:17:37.137Z,31.07
2018-09-21T10:18:47.216Z,31.06
2018-09-21T10:19:57.044Z,31.18
2018-09-21T10:21:06.874Z,31.18
2018-09-21T10:22:16.961Z,31.25
2018-09-21T10:23:27.165Z,31.34
2018-09-21T10:24:37.412Z,31.31
2018-09-21T10:25:46.703Z,31.43
2018-09-21T10:26:56.350Z,31.38
2018-09-21T10:28:08.635Z,31.41
2018-09-21T10:29:19.275Z,31.45
2018-09-21T10:30:29.096Z,31.41
2018-09-21T10:31:39.238Z,31.43
2018-09-21T10:32:49.069Z,31.53
2018-09-21T10:33:58.928Z,31.56
2018-09-21T10:35:09.082Z,31.68
2018-09-21T10:36:18.927Z,31.71
2018-09-21T10:37:28.791Z,31.74
2018-09-21T10:38:38.896Z,31.8
2018-09-21T10:39:49.119Z,31.81
2018-09-21T10:40:59.736Z,31.77
2018-09-21T10:42:09.843Z,31.95
2018-09-21T10:43:20.245Z,31.91
2018-09-21T10:44:30.085Z,31.97
2018-09-21T10:45:39.902Z,32.08
2018-09-21T10:46:50.054Z,32.17
2018-09-21T10:48:00.169Z,32.16
2018-09-21T10:49:10.259Z,32.16
2018-09-21T10:50:20.121Z,32.32
2018-09-21T10:51:30.214Z,32.39
2018-09-21T10:52:40.178Z,32.45
2018-09-21T10:53:50.550Z,32.43
2018-09-21T10:55:00.128Z,32.46
2018-09-21T10:56:10.205Z,32.5
2018-09-21T10:57:20.305Z,32.57
2018-09-21T10:58:30.271Z,32.61
2018-09-21T10:59:40.504Z,32.64
2018-09-21T11:00:50.583Z,32.65
2018-09-21T11:02:00.448Z,32.59
2018-09-21T11:03:10.576Z,32.61
2018-09-21T11:04:20.775Z,32.64
2018-09-21T11:05:30.874Z,32.61
2018-09-21T11:06:40.975Z,32.62
2018-09-21T11:07:51.089Z,32.65
2018-09-21T11:09:01.172Z,32.67
2018-09-21T11:10:11.268Z,32.68
2018-09-21T11:11:21.367Z,32.75
2018-09-21T11:12:31.461Z,32.75
2018-09-21T11:13:41.530Z,32.87
2018-09-21T11:14:51.630Z,32.9
2018-09-21T11:16:01.752Z,32.96
2018-09-21T11:17:11.581Z,33.01
2018-09-21T11:18:21.402Z,33.03
2018-09-21T11:19:31.485Z,33.08
2018-09-21T11:20:41.047Z,33.18
2018-09-21T11:21:51.147Z,33.26
2018-09-21T11:23:00.968Z,33.18
2018-09-21T11:24:11.047Z,33.29
2018-09-21T11:25:21.169Z,33.26
2018-09-21T11:26:31.248Z,33.2
2018-09-21T11:27:41.092Z,33.26
2018-09-21T11:28:51.245Z,33.18
2018-09-21T11:30:01.079Z,33.26
2018-09-21T11:31:11.185Z,33.28
2018-09-21T11:32:21.070Z,33.16
2018-09-21T11:33:31.180Z,33.24
2018-09-21T11:34:40.772Z,33.28
2018-09-21T11:35:50.714Z,33.28
2018-09-21T11:37:00.835Z,33.31
2018-09-21T11:38:10.980Z,33.36
2018-09-21T11:39:20.803Z,33.29
2018-09-21T11:40:30.642Z,33.21
2018-09-21T11:41:40.802Z,33.16
2018-09-21T11:42:50.892Z,33.18
2018-09-21T11:44:01.350Z,33.16
2018-09-21T11:45:11.191Z,33.18
2018-09-21T11:46:21.279Z,33.26
2018-09-21T11:47:31.975Z,33.32
2018-09-21T11:48:42.363Z,33.34
2018-09-21T11:49:52.216Z,33.43
2018-09-21T11:51:02.357Z,33.5
2018-09-21T11:52:12.459Z,33.55
2018-09-21T11:53:22.548Z,33.58
2018-09-21T11:54:32.641Z,33.69
2018-09-21T11:55:42.852Z,33.68
2018-09-21T11:56:52.671Z,33.74
2018-09-21T11:58:04.763Z,33.63
2018-09-21T11:59:14.867Z,33.59
2018-09-21T12:00:24.696Z,33.62
2018-09-21T12:01:34.574Z,33.56
2018-09-21T12:02:44.705Z,33.52
2018-09-21T12:03:54.534Z,33.48
2018-09-21T12:05:04.836Z,33.44
2018-09-21T12:06:14.852Z,33.4
2018-09-21T12:07:25.005Z,33.37
2018-09-21T12:08:35.097Z,33.37
2018-09-21T12:09:45.203Z,33.41
2018-09-21T12:10:54.843Z,33.47
2018-09-21T12:12:04.949Z,33.52
2018-09-21T12:13:15.068Z,33.55
2018-09-21T12:14:25.147Z,33.68
2018-09-21T12:15:35.247Z,33.74
2018-09-21T12:16:45.068Z,33.71
2018-09-21T12:17:54.919Z,33.74
2018-09-21T12:19:04.742Z,33.75
2018-09-21T12:20:14.821Z,33.75
2018-09-21T12:21:24.912Z,33.81
2018-09-21T12:22:35.095Z,33.87
2018-09-21T12:23:44.683Z,33.96
2018-09-21T12:24:54.788Z,33.92
2018-09-21T12:26:04.900Z,33.99
2018-09-21T12:27:14.713Z,33.95
2018-09-21T12:28:24.593Z,34
2018-09-21T12:29:34.434Z,34.05
2018-09-21T12:30:44.540Z,34.06
2018-09-21T12:31:54.621Z,34.02
2018-09-21T12:33:04.720Z,34.02
2018-09-21T12:34:14.830Z,33.97
2018-09-21T12:35:24.977Z,34.02
2018-09-21T12:36:35.355Z,33.93
2018-09-21T12:37:45.446Z,33.87
2018-09-21T12:38:55.281Z,33.93
2018-09-21T12:40:08.578Z,33.9
2018-09-21T12:41:18.682Z,33.9
2018-09-21T12:42:28.644Z,33.84
2018-09-21T12:43:38.643Z,33.87
2018-09-21T12:44:48.965Z,33.84
2018-09-21T12:45:58.820Z,33.68
2018-09-21T12:47:08.858Z,33.68
2018-09-21T12:48:18.909Z,33.63
2018-09-21T12:49:28.938Z,33.65
2018-09-21T12:50:39.145Z,33.63
2018-09-21T12:51:49.222Z,33.63
2018-09-21T12:52:59.243Z,33.53
2018-09-21T12:54:09.283Z,33.62
2018-09-21T12:55:19.326Z,33.63
2018-09-21T12:56:28.907Z,33.58
2018-09-21T12:57:39.269Z,33.61
2018-09-21T12:58:49.782Z,33.59
2018-09-21T13:00:00.353Z,33.61
2018-09-21T13:01:10.398Z,33.66
2018-09-21T13:02:20.433Z,33.73
2018-09-21T13:03:30.521Z,33.71
2018-09-21T13:04:40.566Z,33.73
2018-09-21T13:05:50.331Z,33.75
2018-09-21T13:07:00.386Z,33.83
2018-09-21T13:08:10.476Z,33.83
2018-09-21T13:09:20.563Z,33.81
2018-09-21T13:10:30.417Z,33.83
2018-09-21T13:11:40.540Z,33.92
2018-09-21T13:12:50.616Z,33.73
2018-09-21T13:14:00.710Z,33.68
2018-09-21T13:15:10.848Z,33.75
2018-09-21T13:16:20.984Z,33.75
2018-09-21T13:17:31.082Z,33.71
2018-09-21T13:18:41.182Z,33.66
2018-09-21T13:19:51.038Z,33.69
2018-09-21T13:21:01.190Z,33.73
2018-09-21T13:22:11.030Z,33.69
2018-09-21T13:23:20.872Z,33.73
2018-09-21T13:24:30.958Z,33.61
2018-09-21T13:25:40.610Z,33.61
2018-09-21T13:26:50.861Z,33.61
2018-09-21T13:28:01.259Z,33.62
2018-09-21T13:29:11.076Z,33.61
2018-09-21T13:30:20.925Z,33.74
2018-09-21T13:31:31.004Z,33.63
2018-09-21T13:32:41.176Z,33.62
2018-09-21T13:33:51.267Z,33.56
2018-09-21T13:35:02.649Z,33.48
2018-09-21T13:36:12.498Z,33.5
2018-09-21T13:37:22.589Z,33.44
2018-09-21T13:38:32.676Z,33.5
2018-09-21T13:39:42.519Z,33.48
2018-09-21T13:40:52.623Z,33.5
2018-09-21T13:42:03.830Z,33.46
2018-09-21T13:43:13.901Z,33.43
2018-09-21T13:44:23.736Z,33.46
2018-09-21T13:45:33.829Z,33.34
2018-09-21T13:46:43.658Z,33.39
2018-09-21T13:47:53.500Z,33.32
2018-09-21T13:49:05.611Z,33.28
2018-09-21T13:50:15.517Z,33.32
2018-09-21T13:51:25.619Z,33.34
2018-09-21T13:52:35.728Z,33.29
2018-09-21T13:53:45.814Z,33.36
2018-09-21T13:54:55.910Z,33.37
2018-09-21T13:56:05.753Z,33.34
2018-09-21T13:57:15.569Z,33.31
2018-09-21T13:58:25.668Z,33.34
2018-09-21T13:59:35.776Z,33.39
2018-09-21T14:00:45.339Z,33.37
2018-09-21T14:01:55.223Z,33.41
2018-09-21T14:03:05.332Z,33.39
2018-09-21T14:04:15.430Z,33.36
2018-09-21T14:05:25.037Z,33.39
2018-09-21T14:06:35.021Z,33.28
2018-09-21T14:07:45.166Z,33.29
2018-09-21T14:08:55.246Z,33.2
2018-09-21T14:10:05.342Z,33.29
2018-09-21T14:11:15.461Z,33.11
2018-09-21T14:12:25.538Z,33.17
2018-09-21T14:13:35.663Z,33.2
2018-09-21T14:14:45.774Z,33.17
2018-09-21T14:15:55.893Z,33.21
2018-09-21T14:17:07.246Z,33.17
2018-09-21T14:18:17.344Z,33.03
2018-09-21T14:19:27.467Z,33.09
2018-09-21T14:20:37.568Z,33.06
2018-09-21T14:21:47.730Z,33.03
2018-09-21T14:22:57.837Z,33.02
2018-09-21T14:24:07.719Z,33.02
2018-09-21T14:25:17.826Z,33.06
2018-09-21T14:26:27.935Z,33.06
2018-09-21T14:27:38.018Z,33.11
2018-09-21T14:28:48.117Z,33.13
2018-09-21T14:29:58.006Z,33.2
2018-09-21T14:31:10.331Z,33.12
2018-09-21T14:32:20.423Z,33.18
2018-09-21T14:33:30.521Z,33.24
2018-09-21T14:34:40.621Z,33.18
2018-09-21T14:35:50.883Z,33.13
2018-09-21T14:37:01.119Z,33.06
2018-09-21T14:38:11.218Z,32.99
2018-09-21T14:39:21.350Z,32.91
2018-09-21T14:40:31.197Z,32.91
2018-09-21T14:41:41.326Z,32.87
2018-09-21T14:42:51.445Z,32.83
2018-09-21T14:44:01.283Z,32.96
2018-09-21T14:45:11.377Z,32.94
2018-09-21T14:46:21.466Z,32.96
2018-09-21T14:47:31.566Z,32.87
2018-09-21T14:48:41.709Z,32.87
2018-09-21T14:49:51.836Z,32.76
2018-09-21T14:51:01.408Z,32.68
2018-09-21T14:52:11.262Z,32.68
2018-09-21T14:53:21.608Z,32.57
2018-09-21T14:54:31.774Z,32.54
2018-09-21T14:55:41.604Z,32.53
2018-09-21T14:56:51.442Z,32.5
2018-09-21T14:58:01.276Z,32.38
2018-09-21T14:59:11.363Z,32.35
2018-09-21T15:00:21.734Z,32.35
2018-09-21T15:01:31.839Z,32.28
2018-09-21T15:02:41.908Z,32.2
2018-09-21T15:03:51.747Z,32.12
2018-09-21T15:05:02.898Z,32.17
2018-09-21T15:06:12.998Z,32.16
2018-09-21T15:07:23.127Z,32.1
2018-09-21T15:08:33.159Z,32.16
2018-09-21T15:09:43.393Z,32.13
2018-09-21T15:10:53.496Z,32.06
2018-09-21T15:12:05.635Z,32
2018-09-21T15:13:15.719Z,31.95
2018-09-21T15:14:25.828Z,31.9
2018-09-21T15:15:35.925Z,31.75
2018-09-21T15:16:46.051Z,31.71
2018-09-21T15:17:56.157Z,31.75
2018-09-21T15:19:06.267Z,31.72
2018-09-21T15:20:16.389Z,31.62
2018-09-21T15:21:26.495Z,31.6
2018-09-21T15:22:36.580Z,31.68
2018-09-21T15:23:46.758Z,31.58
2018-09-21T15:24:56.860Z,31.65
2018-09-21T15:26:06.978Z,31.68
2018-09-21T15:27:17.105Z,31.67
2018-09-21T15:28:27.229Z,31.63
2018-09-21T15:29:37.880Z,31.6
2018-09-21T15:30:47.727Z,31.6
2018-09-21T15:31:57.812Z,31.6
2018-09-21T15:33:09.074Z,31.6
2018-09-21T15:34:19.165Z,31.55
2018-09-21T15:35:29.025Z,31.56
2018-09-21T15:36:38.846Z,31.55
2018-09-21T15:37:48.692Z,31.55